createdAt,value
2017-10-20T00:00:15.631Z,99.90
2017-10-20T00:02:43.419Z,99.90
2017-10-20T00:05:11.179Z,99.90
2017-10-20T00:07:38.949Z,99.90
2017-10-20T00:10:07.313Z,99.90
2017-10-20T00:12:35.046Z,99.90
2017-10-20T00:15:02.892Z,99.90
2017-10-20T00:17:31.441Z,99.90
2017-10-20T00:19:59.302Z,99.90
2017-10-20T00:22:27.065Z,99.90
2017-10-20T00:24:54.873Z,99.90
2017-10-20T00:27:23.416Z,99.90
2017-10-20T00:29:52.000Z,99.90
2017-10-20T00:32:19.847Z,99.90
2017-10-20T00:34:47.743Z,99.90
2017-10-20T00:37:15.703Z,99.90
2017-10-20T00:39:43.568Z,99.90
2017-10-20T00:42:11.517Z,99.90
2017-10-20T00:44:39.407Z,99.90
2017-10-20T00:47:07.378Z,99.90
2017-10-20T00:49:35.323Z,99.90
2017-10-20T00:52:03.243Z,99.90
2017-10-20T00:54:32.715Z,99.90
2017-10-20T00:57:00.672Z,99.90
2017-10-20T00:59:28.543Z,99.90
2017-10-20T01:01:56.496Z,99.90
2017-10-20T01:04:24.274Z,99.90
2017-10-20T01:06:52.091Z,99.90
2017-10-20T01:09:19.915Z,99.90
2017-10-20T01:11:47.781Z,99.90
2017-10-20T01:14:15.566Z,99.90
2017-10-20T01:16:44.135Z,99.90
2017-10-20T01:19:12.740Z,99.90
2017-10-20T01:21:41.515Z,99.90
2017-10-20T01:24:09.338Z,99.90
2017-10-20T01:26:37.431Z,99.90
2017-10-20T01:29:05.405Z,99.90
2017-10-20T01:31:33.262Z,99.90
2017-10-20T01:34:01.238Z,99.90
2017-10-20T01:36:29.062Z,99.90
2017-10-20T01:38:56.941Z,99.90
2017-10-20T01:41:24.941Z,99.90
2017-10-20T01:43:52.771Z,99.90
2017-10-20T01:46:20.677Z,99.90
2017-10-20T01:48:48.622Z,99.90
2017-10-20T01:51:16.592Z,99.90
2017-10-20T01:53:44.483Z,99.90
2017-10-20T01:56:12.303Z,99.90
2017-10-20T01:58:40.421Z,99.90
2017-10-20T02:01:08.165Z,99.90
2017-10-20T02:03:35.986Z,99.90
2017-10-20T02:06:04.024Z,99.90
2017-10-20T02:08:31.988Z,99.90
2017-10-20T02:10:59.855Z,99.90
2017-10-20T02:13:27.824Z,99.90
2017-10-20T02:15:55.872Z,99.90
2017-10-20T02:18:23.651Z,99.90
2017-10-20T02:20:51.427Z,99.90
2017-10-20T02:23:19.282Z,99.90
2017-10-20T02:25:47.760Z,99.90
2017-10-20T02:28:15.715Z,99.90
2017-10-20T02:30:43.582Z,99.90
2017-10-20T02:33:11.880Z,99.90
2017-10-20T02:35:39.846Z,99.90
2017-10-20T02:38:07.917Z,99.90
2017-10-20T02:40:35.892Z,99.90
2017-10-20T02:43:03.937Z,99.90
2017-10-20T02:45:31.714Z,99.90
2017-10-20T02:47:59.451Z,99.90
2017-10-20T02:50:27.290Z,99.90
2017-10-20T02:52:55.110Z,99.90
2017-10-20T02:55:22.881Z,99.90
2017-10-20T02:57:51.151Z,99.90
2017-10-20T03:00:19.124Z,99.90
2017-10-20T03:02:47.074Z,99.90
2017-10-20T03:05:16.387Z,99.90
2017-10-20T03:07:44.160Z,99.90
2017-10-20T03:10:12.208Z,99.90
2017-10-20T03:12:40.277Z,99.90
2017-10-20T03:15:08.141Z,99.90
2017-10-20T03:17:35.863Z,99.90
2017-10-20T03:20:03.668Z,99.90
2017-10-20T03:22:31.525Z,99.90
2017-10-20T03:24:59.321Z,99.90
2017-10-20T03:27:27.183Z,99.90
2017-10-20T03:29:55.518Z,99.90
2017-10-20T03:32:23.332Z,99.90
2017-10-20T03:34:51.093Z,99.90
2017-10-20T03:37:18.854Z,99.90
2017-10-20T03:39:46.717Z,99.90
2017-10-20T03:42:14.671Z,99.90
2017-10-20T03:44:42.539Z,99.90
2017-10-20T03:47:10.274Z,99.90
2017-10-20T03:49:38.007Z,99.90
2017-10-20T03:52:06.209Z,99.90
2017-10-20T03:54:33.955Z,99.90
2017-10-20T03:57:02.505Z,99.90
2017-10-20T03:59:30.267Z,99.90
2017-10-20T04:01:58.050Z,99.90
2017-10-20T04:04:26.104Z,99.90
2017-10-20T04:06:54.637Z,99.90
2017-10-20T04:09:22.542Z,99.90
2017-10-20T04:11:50.451Z,99.90
2017-10-20T04:14:19.038Z,99.90
2017-10-20T04:16:47.820Z,99.90
2017-10-20T04:19:16.573Z,99.90
2017-10-20T04:21:44.547Z,99.90
2017-10-20T04:24:12.419Z,99.90
2017-10-20T04:26:40.208Z,99.90
2017-10-20T04:29:08.792Z,99.90
2017-10-20T04:31:38.366Z,99.90
2017-10-20T04:34:06.179Z,99.90
2017-10-20T04:36:34.112Z,99.90
2017-10-20T04:39:02.280Z,99.90
2017-10-20T04:41:30.147Z,99.90
2017-10-20T04:43:58.011Z,99.90
2017-10-20T04:46:26.781Z,99.90
2017-10-20T04:48:54.757Z,99.90
2017-10-20T04:51:22.749Z,99.20
2017-10-20T04:53:50.600Z,97.50
2017-10-20T04:56:18.375Z,97.30
2017-10-20T04:58:47.152Z,95.60
2017-10-20T05:01:15.206Z,95.40
2017-10-20T05:03:43.240Z,95.70
2017-10-20T05:06:11.204Z,96.30
2017-10-20T05:08:39.746Z,97.60
2017-10-20T05:11:07.690Z,97.60
2017-10-20T05:13:36.086Z,97.70
2017-10-20T05:16:03.870Z,98.10
2017-10-20T05:18:31.806Z,97.90
2017-10-20T05:20:59.595Z,98.00
2017-10-20T05:23:28.294Z,98.10
2017-10-20T05:25:57.034Z,99.30
2017-10-20T05:28:25.114Z,99.00
2017-10-20T05:30:53.923Z,99.80
2017-10-20T05:33:21.712Z,99.90
2017-10-20T05:35:51.272Z,99.90
2017-10-20T05:38:19.207Z,99.90
2017-10-20T05:40:48.045Z,99.90
2017-10-20T05:43:15.915Z,99.90
2017-10-20T05:45:43.744Z,99.90
2017-10-20T05:48:11.643Z,99.90
2017-10-20T05:50:39.383Z,99.90
2017-10-20T05:53:07.276Z,99.90
2017-10-20T05:55:35.153Z,99.90
2017-10-20T05:58:03.017Z,99.90
2017-10-20T06:00:30.763Z,99.90
2017-10-20T06:02:58.531Z,99.90
2017-10-20T06:05:26.402Z,99.90
2017-10-20T06:07:54.151Z,99.70
2017-10-20T06:10:21.937Z,99.90
2017-10-20T06:12:55.108Z,99.70
2017-10-20T06:15:22.996Z,99.20
2017-10-20T06:17:50.942Z,99.00
2017-10-20T06:20:18.744Z,98.60
2017-10-20T06:22:47.391Z,96.40
2017-10-20T06:25:15.156Z,96.90
2017-10-20T06:27:43.653Z,96.00
2017-10-20T06:30:12.245Z,95.40
2017-10-20T06:32:40.137Z,95.40
2017-10-20T06:35:08.674Z,94.40
2017-10-20T06:37:36.435Z,94.40
2017-10-20T06:40:04.402Z,93.90
2017-10-20T06:42:32.283Z,93.50
2017-10-20T06:45:00.066Z,93.30
2017-10-20T06:47:28.443Z,92.90
2017-10-20T06:49:56.481Z,93.10
2017-10-20T06:52:24.370Z,92.00
2017-10-20T06:54:52.196Z,92.40
2017-10-20T06:57:20.910Z,91.20
2017-10-20T06:59:48.906Z,90.60
2017-10-20T07:02:16.683Z,88.80
2017-10-20T07:04:46.387Z,88.70
2017-10-20T07:07:14.326Z,88.80
2017-10-20T07:09:42.279Z,90.00
2017-10-20T07:12:10.164Z,91.50
2017-10-20T07:14:37.957Z,92.40
2017-10-20T07:17:06.620Z,90.40
2017-10-20T07:19:40.528Z,90.40
2017-10-20T07:22:08.368Z,89.20
2017-10-20T07:24:36.236Z,88.30
2017-10-20T07:27:04.205Z,87.30
2017-10-20T07:29:32.087Z,82.10
2017-10-20T07:32:02.725Z,82.30
2017-10-20T07:34:30.518Z,82.40
2017-10-20T07:36:59.149Z,81.80
2017-10-20T07:39:27.035Z,81.70
2017-10-20T07:41:54.904Z,81.40
2017-10-20T07:44:23.299Z,80.80
2017-10-20T07:46:51.176Z,80.80
2017-10-20T07:49:20.039Z,72.50
2017-10-20T07:51:48.010Z,72.60
2017-10-20T07:54:15.855Z,73.00
2017-10-20T07:56:43.681Z,74.90
2017-10-20T07:59:11.542Z,70.90
2017-10-20T08:01:40.100Z,71.10
2017-10-20T08:04:08.219Z,71.10
2017-10-20T08:06:35.987Z,72.30
2017-10-20T08:09:03.839Z,73.30
2017-10-20T08:11:31.960Z,77.20
2017-10-20T08:13:59.731Z,82.10
2017-10-20T08:16:27.604Z,88.20
2017-10-20T08:18:56.263Z,89.00
2017-10-20T08:21:24.052Z,89.30
2017-10-20T08:23:52.137Z,88.90
2017-10-20T08:26:20.189Z,89.70
2017-10-20T08:28:48.071Z,91.00
2017-10-20T08:31:17.066Z,90.20
2017-10-20T08:33:44.922Z,90.50
2017-10-20T08:36:12.696Z,89.00
2017-10-20T08:38:41.258Z,86.30
2017-10-20T08:41:09.966Z,86.40
2017-10-20T08:46:11.927Z,78.40
2017-10-20T08:48:39.729Z,75.90
2017-10-20T08:51:08.381Z,79.30
2017-10-20T08:53:36.328Z,79.10
2017-10-20T08:56:04.432Z,78.60
2017-10-20T08:58:32.289Z,75.50
2017-10-20T09:01:00.237Z,77.20
2017-10-20T09:03:28.106Z,72.80
2017-10-20T09:05:55.988Z,73.60
2017-10-20T09:08:24.153Z,71.70
2017-10-20T09:10:52.192Z,68.70
2017-10-20T09:13:19.995Z,65.60
2017-10-20T09:15:47.781Z,68.60
2017-10-20T09:18:15.567Z,66.10
2017-10-20T09:20:44.237Z,66.30
2017-10-20T09:23:12.797Z,65.60
2017-10-20T09:25:40.893Z,65.70
2017-10-20T09:28:09.452Z,65.50
2017-10-20T09:30:37.294Z,65.50
2017-10-20T09:33:05.931Z,67.50
2017-10-20T09:35:34.494Z,67.30
2017-10-20T09:38:02.267Z,67.30
2017-10-20T09:40:30.843Z,70.50
2017-10-20T09:42:59.388Z,72.20
2017-10-20T09:45:27.473Z,72.10
2017-10-20T09:47:55.241Z,70.40
2017-10-20T09:50:23.110Z,70.30
2017-10-20T09:52:50.993Z,71.60
2017-10-20T09:55:18.755Z,65.80
2017-10-20T09:57:47.312Z,62.90
2017-10-20T10:00:15.177Z,64.10
2017-10-20T10:02:43.271Z,62.60
2017-10-20T10:05:11.219Z,63.90
2017-10-20T10:07:38.978Z,66.00
2017-10-20T10:10:06.766Z,65.90
2017-10-20T10:12:34.713Z,65.30
2017-10-20T10:15:02.697Z,61.80
2017-10-20T10:17:30.654Z,62.60
2017-10-20T10:19:58.727Z,66.10
2017-10-20T10:22:26.699Z,65.70
2017-10-20T10:24:55.289Z,62.80
2017-10-20T10:27:23.272Z,63.20
2017-10-20T10:29:51.181Z,63.70
2017-10-20T10:32:19.091Z,64.50
2017-10-20T10:34:46.904Z,62.00
2017-10-20T10:37:15.970Z,61.90
2017-10-20T10:39:43.825Z,62.00
2017-10-20T10:42:11.590Z,60.50
2017-10-20T10:44:40.896Z,62.70
2017-10-20T10:47:08.738Z,62.70
2017-10-20T10:49:36.737Z,59.20
2017-10-20T10:52:04.677Z,61.00
2017-10-20T10:54:32.567Z,63.10
2017-10-20T10:57:00.431Z,74.50
2017-10-20T10:59:28.430Z,85.80
2017-10-20T11:01:57.036Z,92.20
2017-10-20T11:04:24.948Z,92.20
2017-10-20T11:07:04.911Z,92.20
2017-10-20T11:09:32.812Z,92.50
2017-10-20T11:12:12.802Z,91.90
2017-10-20T11:14:40.685Z,92.30
2017-10-20T11:17:08.544Z,90.70
2017-10-20T11:19:36.317Z,90.70
2017-10-20T11:22:04.288Z,89.30
2017-10-20T11:24:32.165Z,90.20
2017-10-20T11:27:00.104Z,90.10
2017-10-20T11:29:28.068Z,89.60
2017-10-20T11:31:55.914Z,89.60
2017-10-20T11:34:23.775Z,86.40
2017-10-20T11:36:51.670Z,84.80
2017-10-20T11:39:19.537Z,85.40
2017-10-20T11:41:47.355Z,85.70
2017-10-20T11:44:16.123Z,86.00
2017-10-20T11:46:45.161Z,85.90
2017-10-20T11:49:13.171Z,86.40
2017-10-20T11:51:40.947Z,85.90
2017-10-20T11:54:08.739Z,83.50
2017-10-20T11:56:37.411Z,83.90
2017-10-20T11:59:06.033Z,83.50
2017-10-20T12:01:33.939Z,83.50
2017-10-20T12:04:02.831Z,83.90
2017-10-20T12:06:30.804Z,82.20
2017-10-20T12:08:58.876Z,81.40
2017-10-20T12:11:26.734Z,80.40
2017-10-20T12:13:54.585Z,80.50
2017-10-20T12:16:22.467Z,81.90
2017-10-20T12:18:50.355Z,80.80
2017-10-20T12:21:18.919Z,76.30
2017-10-20T12:23:46.681Z,76.20
2017-10-20T12:26:14.633Z,79.10
2017-10-20T12:28:42.412Z,77.40
2017-10-20T12:31:10.269Z,79.60
2017-10-20T12:33:38.130Z,77.80
2017-10-20T12:36:05.972Z,79.70
2017-10-20T12:38:33.861Z,78.80
2017-10-20T12:41:01.731Z,80.40
2017-10-20T12:43:30.026Z,79.00
2017-10-20T12:45:57.852Z,80.20
2017-10-20T12:48:25.616Z,79.40
2017-10-20T12:50:53.408Z,78.50
2017-10-20T12:53:21.269Z,77.40
2017-10-20T12:55:49.666Z,79.10
2017-10-20T12:58:17.452Z,78.90
2017-10-20T13:00:46.574Z,76.70
2017-10-20T13:03:14.387Z,76.50
2017-10-20T13:05:43.085Z,75.30
2017-10-20T13:08:10.889Z,76.30
2017-10-20T13:10:38.893Z,76.50
2017-10-20T13:13:06.676Z,74.90
2017-10-20T13:15:34.727Z,74.90
2017-10-20T13:20:36.706Z,72.40
2017-10-20T13:23:04.709Z,75.00
2017-10-20T13:25:33.277Z,72.40
2017-10-20T13:28:01.230Z,72.30
2017-10-20T13:30:29.011Z,70.20
2017-10-20T13:32:56.988Z,67.80
2017-10-20T13:35:24.949Z,71.30
2017-10-20T13:37:52.902Z,69.10
2017-10-20T13:40:20.832Z,69.70
2017-10-20T13:42:48.648Z,69.80
2017-10-20T13:45:16.603Z,69.30
2017-10-20T13:47:44.396Z,66.70
2017-10-20T13:50:12.337Z,65.80
2017-10-20T13:52:40.208Z,64.80
2017-10-20T13:55:07.987Z,65.90
2017-10-20T13:57:35.877Z,65.30
2017-10-20T14:00:04.535Z,64.60
2017-10-20T14:02:32.502Z,64.60
2017-10-20T14:05:01.401Z,66.60
2017-10-20T14:07:30.064Z,67.80
2017-10-20T14:09:57.931Z,67.90
2017-10-20T14:12:26.001Z,67.00
2017-10-20T14:14:53.884Z,66.30
2017-10-20T14:17:21.761Z,64.10
2017-10-20T14:19:49.544Z,64.00
2017-10-20T14:22:18.205Z,61.80
2017-10-20T14:24:46.077Z,61.60
2017-10-20T14:27:14.739Z,60.00
2017-10-20T14:29:42.537Z,59.90
2017-10-20T14:32:11.320Z,58.90
2017-10-20T14:34:40.077Z,58.50
2017-10-20T14:37:08.676Z,58.50
2017-10-20T14:39:38.166Z,62.30
2017-10-20T14:42:06.667Z,63.60
2017-10-20T14:44:34.433Z,66.80
2017-10-20T14:47:02.484Z,64.40
2017-10-20T14:49:30.557Z,62.90
2017-10-20T14:51:58.431Z,64.90
2017-10-20T14:54:26.304Z,66.20
2017-10-20T14:56:54.280Z,64.60
2017-10-20T14:59:22.139Z,66.80
2017-10-20T15:01:50.950Z,67.30
2017-10-20T15:04:19.525Z,66.40
2017-10-20T15:06:47.312Z,65.70
2017-10-20T15:09:15.823Z,64.40
2017-10-20T15:11:43.804Z,64.40
2017-10-20T15:14:11.677Z,67.40
2017-10-20T15:16:39.463Z,65.70
2017-10-20T15:19:07.324Z,66.40
2017-10-20T15:21:35.184Z,66.70
2017-10-20T15:24:03.308Z,67.00
2017-10-20T15:26:31.230Z,67.60
2017-10-20T15:28:59.003Z,71.40
2017-10-20T15:31:26.943Z,71.00
2017-10-20T15:33:54.799Z,72.50
2017-10-20T15:36:22.555Z,72.20
2017-10-20T15:38:50.396Z,71.40
2017-10-20T15:41:19.341Z,76.30
2017-10-20T15:43:47.211Z,76.20
2017-10-20T15:46:15.134Z,76.30
2017-10-20T15:48:43.051Z,78.20
2017-10-20T15:51:10.824Z,80.50
2017-10-20T15:53:38.767Z,82.40
2017-10-20T15:56:06.752Z,82.70
2017-10-20T15:58:34.587Z,84.10
2017-10-20T16:01:02.372Z,84.00
2017-10-20T16:03:30.251Z,84.60
2017-10-20T16:05:58.110Z,84.50
2017-10-20T16:08:26.020Z,85.70
2017-10-20T16:10:54.518Z,85.50
2017-10-20T16:13:22.255Z,85.50
2017-10-20T16:15:50.923Z,87.80
2017-10-20T16:18:18.887Z,87.90
2017-10-20T16:20:46.717Z,84.80
2017-10-20T16:23:14.553Z,84.90
2017-10-20T16:25:43.179Z,84.50
2017-10-20T16:28:11.263Z,84.40
2017-10-20T16:30:39.145Z,84.10
2017-10-20T16:33:07.054Z,85.20
2017-10-20T16:35:34.805Z,85.10
2017-10-20T16:38:03.538Z,87.10
2017-10-20T16:40:32.041Z,87.10
2017-10-20T16:42:59.989Z,87.60
2017-10-20T16:45:29.204Z,87.80
2017-10-20T16:47:57.073Z,87.10
2017-10-20T16:50:27.518Z,87.70
2017-10-20T16:52:55.463Z,88.10
2017-10-20T16:55:23.637Z,88.10
2017-10-20T16:57:51.922Z,88.00
2017-10-20T17:00:19.795Z,88.00
2017-10-20T17:02:48.450Z,88.30
2017-10-20T17:05:16.418Z,88.30
2017-10-20T17:07:45.343Z,89.10
2017-10-20T17:10:13.891Z,89.40
2017-10-20T17:12:41.678Z,89.40
2017-10-20T17:15:10.342Z,90.70
2017-10-20T17:17:38.336Z,90.70
2017-10-20T17:20:06.191Z,91.20
2017-10-20T17:22:35.169Z,91.70
2017-10-20T17:25:02.948Z,92.50
2017-10-20T17:27:30.821Z,93.00
2017-10-20T17:29:58.652Z,93.10
2017-10-20T17:32:26.572Z,93.80
2017-10-20T17:34:54.713Z,94.10
2017-10-20T17:37:22.814Z,93.70
2017-10-20T17:39:50.669Z,93.60
2017-10-20T17:42:18.543Z,93.90
2017-10-20T17:44:46.395Z,93.90
2017-10-20T17:47:14.170Z,94.10
2017-10-20T17:49:42.361Z,94.30
2017-10-20T17:52:11.134Z,94.00
2017-10-20T17:54:39.201Z,94.00
2017-10-20T17:57:06.981Z,94.00
2017-10-20T17:59:35.630Z,93.90
2017-10-20T18:02:03.592Z,93.90
2017-10-20T18:04:31.524Z,93.80
2017-10-20T18:06:59.371Z,94.10
2017-10-20T18:09:27.293Z,94.20
2017-10-20T18:11:55.266Z,94.60
2017-10-20T18:14:33.578Z,95.10
2017-10-20T18:17:01.649Z,95.40
2017-10-20T18:19:29.550Z,95.90
2017-10-20T18:21:58.402Z,96.10
2017-10-20T18:24:26.405Z,96.10
2017-10-20T18:26:54.455Z,96.40
2017-10-20T18:29:22.345Z,96.30
2017-10-20T18:31:50.156Z,96.20
2017-10-20T18:34:18.351Z,95.70
2017-10-20T18:36:46.731Z,95.60
2017-10-20T18:39:14.805Z,95.60
2017-10-20T18:41:42.710Z,95.90
2017-10-20T18:44:11.526Z,96.00
2017-10-20T18:46:39.673Z,96.00
2017-10-20T18:49:08.261Z,96.50
2017-10-20T18:51:36.999Z,96.30
2017-10-20T18:54:04.910Z,96.30
2017-10-20T18:56:33.701Z,96.30
2017-10-20T18:59:02.542Z,96.20
2017-10-20T19:01:30.414Z,96.20
2017-10-20T19:03:58.354Z,96.70
2017-10-20T19:06:26.455Z,96.10
2017-10-20T19:08:54.239Z,95.50
2017-10-20T19:11:22.117Z,94.60
2017-10-20T19:13:50.053Z,94.50
2017-10-20T19:16:18.024Z,94.50
2017-10-20T19:18:45.790Z,93.10
2017-10-20T19:21:13.905Z,92.00
2017-10-20T19:23:42.852Z,92.00
2017-10-20T19:26:10.772Z,91.70
2017-10-20T19:28:39.435Z,91.10
2017-10-20T19:31:08.405Z,90.90
2017-10-20T19:33:36.578Z,90.90
2017-10-20T19:36:04.518Z,91.00
2017-10-20T19:38:32.507Z,91.80
2017-10-20T19:41:00.485Z,92.30
2017-10-20T19:43:28.600Z,92.60
2017-10-20T19:45:57.475Z,92.40
2017-10-20T19:48:26.173Z,92.40
2017-10-20T19:50:54.919Z,92.10
2017-10-20T19:53:23.642Z,92.10
2017-10-20T19:55:52.291Z,92.00
2017-10-20T19:58:20.274Z,92.00
2017-10-20T20:00:48.425Z,92.00
2017-10-20T20:03:16.492Z,92.00
2017-10-20T20:05:44.498Z,92.10
2017-10-20T20:08:12.566Z,92.50
2017-10-20T20:10:40.537Z,92.70
2017-10-20T20:13:08.449Z,92.70
2017-10-20T20:15:36.381Z,93.20
2017-10-20T20:18:05.043Z,92.90
2017-10-20T20:20:33.016Z,92.90
2017-10-20T20:23:00.964Z,92.30
2017-10-20T20:25:28.920Z,92.00
2017-10-20T20:27:57.719Z,92.10
2017-10-20T20:30:26.234Z,92.10
2017-10-20T20:32:58.812Z,91.10
2017-10-20T20:35:26.773Z,91.00
2017-10-20T20:37:54.628Z,90.60
2017-10-20T20:40:22.582Z,90.40
2017-10-20T20:42:50.482Z,90.50
2017-10-20T20:45:18.434Z,90.40
2017-10-20T20:47:46.307Z,90.30
2017-10-20T20:50:14.065Z,90.40
2017-10-20T20:52:42.015Z,90.40
2017-10-20T20:55:09.881Z,90.40
2017-10-20T20:57:37.676Z,90.40
2017-10-20T21:00:07.047Z,90.40
2017-10-20T21:02:35.124Z,90.40
2017-10-20T21:05:03.053Z,90.60
2017-10-20T21:07:30.980Z,90.60
2017-10-20T21:09:58.840Z,90.90
2017-10-20T21:12:26.708Z,91.00
2017-10-20T21:14:54.689Z,91.10
2017-10-20T21:17:22.639Z,90.90
2017-10-20T21:19:50.520Z,90.20
2017-10-20T21:22:18.581Z,90.20
2017-10-20T21:24:48.884Z,90.30
2017-10-20T21:27:17.526Z,90.30
2017-10-20T21:29:45.438Z,90.20
2017-10-20T21:32:13.194Z,90.60
2017-10-20T21:34:40.985Z,90.60
2017-10-20T21:37:08.848Z,90.30
2017-10-20T21:39:36.800Z,90.30
2017-10-20T21:42:04.705Z,90.30
2017-10-20T21:44:33.270Z,90.40
2017-10-20T21:47:01.071Z,90.40
2017-10-20T21:49:29.116Z,90.30
2017-10-20T21:51:56.971Z,90.10
2017-10-20T21:54:24.949Z,89.50
2017-10-20T21:56:52.836Z,89.80
2017-10-20T21:59:22.104Z,88.70
2017-10-20T22:01:49.940Z,88.80
2017-10-20T22:04:17.866Z,88.60
2017-10-20T22:06:46.388Z,89.70
2017-10-20T22:09:14.286Z,89.80
2017-10-20T22:11:42.072Z,90.00
2017-10-20T22:14:09.898Z,90.30
2017-10-20T22:16:38.743Z,91.10
2017-10-20T22:19:07.476Z,91.20
2017-10-20T22:24:09.954Z,91.50
2017-10-20T22:26:37.704Z,91.50
2017-10-20T22:29:05.599Z,91.30
2017-10-20T22:31:33.469Z,91.60
2017-10-20T22:34:01.303Z,91.30
2017-10-20T22:36:29.119Z,90.90
2017-10-20T22:38:56.984Z,91.30
2017-10-20T22:41:24.848Z,91.20
2017-10-20T22:43:52.620Z,90.40
2017-10-20T22:46:20.422Z,90.50
2017-10-20T22:48:48.344Z,90.20
2017-10-20T22:51:16.319Z,90.50
2017-10-20T22:53:44.163Z,90.60
2017-10-20T22:56:12.059Z,90.70
2017-10-20T22:58:39.911Z,90.80
2017-10-20T23:01:07.673Z,90.90
2017-10-20T23:03:35.757Z,90.90
2017-10-20T23:06:03.511Z,90.70
2017-10-20T23:08:31.377Z,90.50
2017-10-20T23:11:00.165Z,90.60
2017-10-20T23:13:28.051Z,90.60
2017-10-20T23:15:56.614Z,90.60
2017-10-20T23:18:24.403Z,90.60
2017-10-20T23:20:52.993Z,91.50
2017-10-20T23:23:21.546Z,91.70
2017-10-20T23:25:49.420Z,91.70
2017-10-20T23:28:17.379Z,92.10
2017-10-20T23:30:45.187Z,92.20
2017-10-20T23:33:13.845Z,92.10
2017-10-20T23:35:41.730Z,92.40
2017-10-20T23:38:10.282Z,92.00
2017-10-20T23:40:38.152Z,92.00
2017-10-20T23:43:05.924Z,91.60
2017-10-20T23:45:33.864Z,91.50
2017-10-20T23:48:01.744Z,91.10
2017-10-20T23:50:29.600Z,90.90
2017-10-20T23:52:58.098Z,91.00
2017-10-20T23:55:25.854Z,90.90
2017-10-20T23:57:53.707Z,90.90
